sensor_id;sensor_type;location;lat;lon;timestamp;P1;durP1;ratioP1;P2;durP2;ratioP2
13927;SDS011;7036;50.834;4.718;2023-05-06T00:00:46;1.70;;;0.90;;
13927;SDS011;7036;50.834;4.718;2023-05-06T00:03:13;1.27;;;0.80;;
13927;SDS011;7036;50.834;4.718;2023-05-06T00:05:41;2.95;;;1.10;;
13927;SDS011;7036;50.834;4.718;2023-05-06T00:08:09;3.83;;;1.00;;
13927;SDS011;7036;50.834;4.718;2023-05-06T00:10:37;2.05;;;1.38;;
13927;SDS011;7036;50.834;4.718;2023-05-06T00:13:05;2.05;;;1.00;;
13927;SDS011;7036;50.834;4.718;2023-05-06T00:15:33;2.38;;;1.20;;
13927;SDS011;7036;50.834;4.718;2023-05-06T00:18:00;1.92;;;1.15;;
13927;SDS011;7036;50.834;4.718;2023-05-06T00:20:28;2.15;;;1.27;;
13927;SDS011;7036;50.834;4.718;2023-05-06T00:22:56;1.55;;;1.20;;
13927;SDS011;7036;50.834;4.718;2023-05-06T00:25:24;0.97;;;0.90;;
13927;SDS011;7036;50.834;4.718;2023-05-06T00:27:51;2.73;;;0.90;;
13927;SDS011;7036;50.834;4.718;2023-05-06T00:30:17;1.37;;;0.90;;
13927;SDS011;7036;50.834;4.718;2023-05-06T00:32:45;2.50;;;1.10;;
13927;SDS011;7036;50.834;4.718;2023-05-06T00:35:12;1.00;;;0.90;;
13927;SDS011;7036;50.834;4.718;2023-05-06T00:37:39;1.95;;;1.05;;
13927;SDS011;7036;50.834;4.718;2023-05-06T00:40:07;1.03;;;0.90;;
13927;SDS011;7036;50.834;4.718;2023-05-06T00:42:33;2.57;;;1.10;;
13927;SDS011;7036;50.834;4.718;2023-05-06T00:45:00;2.35;;;1.23;;
13927;SDS011;7036;50.834;4.718;2023-05-06T00:47:28;3.60;;;1.30;;
13927;SDS011;7036;50.834;4.718;2023-05-06T00:49:56;1.67;;;1.10;;
13927;SDS011;7036;50.834;4.718;2023-05-06T00:52:24;1.77;;;1.27;;
13927;SDS011;7036;50.834;4.718;2023-05-06T00:54:52;2.13;;;1.42;;
13927;SDS011;7036;50.834;4.718;2023-05-06T00:57:20;1.55;;;1.13;;
13927;SDS011;7036;50.834;4.718;2023-05-06T00:59:46;1.53;;;0.90;;
13927;SDS011;7036;50.834;4.718;2023-05-06T01:02:14;2.42;;;1.48;;
13927;SDS011;7036;50.834;4.718;2023-05-06T01:04:42;2.70;;;1.40;;
13927;SDS011;7036;50.834;4.718;2023-05-06T01:07:21;2.28;;;1.05;;
13927;SDS011;7036;50.834;4.718;2023-05-06T01:10:09;2.73;;;1.00;;
13927;SDS011;7036;50.834;4.718;2023-05-06T01:12:41;1.30;;;1.20;;
13927;SDS011;7036;50.834;4.718;2023-05-06T01:15:51;2.77;;;0.87;;
13927;SDS011;7036;50.834;4.718;2023-05-06T01:17:31;2.87;;;1.30;;
13927;SDS011;7036;50.834;4.718;2023-05-06T01:19:58;1.35;;;1.17;;
13927;SDS011;7036;50.834;4.718;2023-05-06T01:22:27;2.33;;;1.25;;
13927;SDS011;7036;50.834;4.718;2023-05-06T01:24:54;3.58;;;1.23;;
13927;SDS011;7036;50.834;4.718;2023-05-06T01:27:23;1.83;;;1.10;;
13927;SDS011;7036;50.834;4.718;2023-05-06T01:29:50;1.67;;;1.30;;
13927;SDS011;7036;50.834;4.718;2023-05-06T01:34:52;2.97;;;1.25;;
13927;SDS011;7036;50.834;4.718;2023-05-06T01:37:28;1.57;;;1.10;;
13927;SDS011;7036;50.834;4.718;2023-05-06T01:39:57;1.20;;;1.10;;
13927;SDS011;7036;50.834;4.718;2023-05-06T01:42:24;5.78;;;1.15;;
13927;SDS011;7036;50.834;4.718;2023-05-06T01:44:54;1.27;;;1.08;;
13927;SDS011;7036;50.834;4.718;2023-05-06T01:47:20;1.25;;;1.10;;
13927;SDS011;7036;50.834;4.718;2023-05-06T01:49:47;1.50;;;1.40;;
13927;SDS011;7036;50.834;4.718;2023-05-06T01:52:14;2.08;;;1.30;;
13927;SDS011;7036;50.834;4.718;2023-05-06T01:54:42;1.40;;;1.30;;
13927;SDS011;7036;50.834;4.718;2023-05-06T01:57:09;2.97;;;1.33;;
13927;SDS011;7036;50.834;4.718;2023-05-06T01:59:36;2.05;;;1.17;;
13927;SDS011;7036;50.834;4.718;2023-05-06T02:02:03;1.75;;;1.27;;
13927;SDS011;7036;50.834;4.718;2023-05-06T02:04:30;3.60;;;1.55;;
13927;SDS011;7036;50.834;4.718;2023-05-06T02:06:57;1.30;;;1.17;;
13927;SDS011;7036;50.834;4.718;2023-05-06T02:09:25;2.80;;;1.33;;
13927;SDS011;7036;50.834;4.718;2023-05-06T02:11:52;1.48;;;1.30;;
13927;SDS011;7036;50.834;4.718;2023-05-06T02:14:21;1.52;;;1.00;;
13927;SDS011;7036;50.834;4.718;2023-05-06T02:16:47;1.50;;;1.00;;
13927;SDS011;7036;50.834;4.718;2023-05-06T02:19:14;1.40;;;0.90;;
13927;SDS011;7036;50.834;4.718;2023-05-06T02:21:42;1.35;;;1.20;;
13927;SDS011;7036;50.834;4.718;2023-05-06T02:24:10;2.10;;;1.08;;
13927;SDS011;7036;50.834;4.718;2023-05-06T02:26:38;2.40;;;1.25;;
13927;SDS011;7036;50.834;4.718;2023-05-06T02:29:06;1.33;;;1.23;;
13927;SDS011;7036;50.834;4.718;2023-05-06T02:31:33;1.15;;;1.05;;
13927;SDS011;7036;50.834;4.718;2023-05-06T02:34:01;2.28;;;1.10;;
13927;SDS011;7036;50.834;4.718;2023-05-06T02:36:28;2.28;;;1.45;;
13927;SDS011;7036;50.834;4.718;2023-05-06T02:38:56;2.92;;;1.20;;
13927;SDS011;7036;50.834;4.718;2023-05-06T02:41:23;2.13;;;1.30;;
13927;SDS011;7036;50.834;4.718;2023-05-06T02:43:51;2.70;;;1.40;;
13927;SDS011;7036;50.834;4.718;2023-05-06T02:46:18;2.97;;;1.73;;
13927;SDS011;7036;50.834;4.718;2023-05-06T02:48:46;1.60;;;1.40;;
13927;SDS011;7036;50.834;4.718;2023-05-06T02:51:14;1.75;;;1.25;;
13927;SDS011;7036;50.834;4.718;2023-05-06T02:53:41;1.40;;;1.02;;
13927;SDS011;7036;50.834;4.718;2023-05-06T02:56:08;1.70;;;1.20;;
13927;SDS011;7036;50.834;4.718;2023-05-06T02:58:36;2.30;;;1.30;;
13927;SDS011;7036;50.834;4.718;2023-05-06T03:01:03;1.80;;;1.30;;
13927;SDS011;7036;50.834;4.718;2023-05-06T03:03:31;1.55;;;1.27;;
13927;SDS011;7036;50.834;4.718;2023-05-06T03:05:58;2.67;;;1.52;;
13927;SDS011;7036;50.834;4.718;2023-05-06T03:08:26;2.55;;;1.35;;
13927;SDS011;7036;50.834;4.718;2023-05-06T03:10:54;1.98;;;1.20;;
13927;SDS011;7036;50.834;4.718;2023-05-06T03:13:22;2.13;;;1.45;;
13927;SDS011;7036;50.834;4.718;2023-05-06T03:15:50;2.60;;;1.63;;
13927;SDS011;7036;50.834;4.718;2023-05-06T03:18:17;1.45;;;1.35;;
13927;SDS011;7036;50.834;4.718;2023-05-06T03:20:46;1.48;;;1.23;;
13927;SDS011;7036;50.834;4.718;2023-05-06T03:23:12;2.05;;;1.40;;
13927;SDS011;7036;50.834;4.718;2023-05-06T03:25:40;2.60;;;1.58;;
13927;SDS011;7036;50.834;4.718;2023-05-06T03:28:07;1.88;;;1.63;;
13927;SDS011;7036;50.834;4.718;2023-05-06T03:30:35;2.35;;;1.65;;
13927;SDS011;7036;50.834;4.718;2023-05-06T03:33:02;2.00;;;1.38;;
13927;SDS011;7036;50.834;4.718;2023-05-06T03:35:31;2.70;;;1.80;;
13927;SDS011;7036;50.834;4.718;2023-05-06T03:37:58;2.03;;;1.83;;
13927;SDS011;7036;50.834;4.718;2023-05-06T03:40:25;3.30;;;1.95;;
13927;SDS011;7036;50.834;4.718;2023-05-06T03:42:53;1.50;;;1.40;;
13927;SDS011;7036;50.834;4.718;2023-05-06T03:45:20;1.73;;;1.20;;
13927;SDS011;7036;50.834;4.718;2023-05-06T03:47:48;1.77;;;1.45;;
13927;SDS011;7036;50.834;4.718;2023-05-06T03:50:15;2.33;;;1.25;;
13927;SDS011;7036;50.834;4.718;2023-05-06T03:52:43;4.25;;;1.50;;
13927;SDS011;7036;50.834;4.718;2023-05-06T03:55:10;2.03;;;1.50;;
13927;SDS011;7036;50.834;4.718;2023-05-06T03:57:39;2.83;;;1.50;;
13927;SDS011;7036;50.834;4.718;2023-05-06T04:00:06;3.30;;;1.40;;
13927;SDS011;7036;50.834;4.718;2023-05-06T04:02:33;1.70;;;1.60;;
13927;SDS011;7036;50.834;4.718;2023-05-06T04:05:01;1.67;;;1.30;;
13927;SDS011;7036;50.834;4.718;2023-05-06T04:07:29;2.17;;;1.65;;
13927;SDS011;7036;50.834;4.718;2023-05-06T04:09:56;2.50;;;1.40;;
13927;SDS011;7036;50.834;4.718;2023-05-06T04:12:24;1.90;;;1.33;;
13927;SDS011;7036;50.834;4.718;2023-05-06T04:14:51;1.75;;;1.33;;
13927;SDS011;7036;50.834;4.718;2023-05-06T04:17:18;1.77;;;1.48;;
13927;SDS011;7036;50.834;4.718;2023-05-06T04:19:45;1.77;;;1.40;;
13927;SDS011;7036;50.834;4.718;2023-05-06T04:22:14;2.40;;;1.35;;
13927;SDS011;7036;50.834;4.718;2023-05-06T04:24:41;2.97;;;1.60;;
13927;SDS011;7036;50.834;4.718;2023-05-06T04:27:09;2.03;;;1.20;;
13927;SDS011;7036;50.834;4.718;2023-05-06T04:29:36;2.95;;;1.67;;
13927;SDS011;7036;50.834;4.718;2023-05-06T04:32:04;2.53;;;1.70;;
13927;SDS011;7036;50.834;4.718;2023-05-06T04:34:33;1.67;;;1.52;;
13927;SDS011;7036;50.834;4.718;2023-05-06T04:37:00;2.23;;;1.50;;
13927;SDS011;7036;50.834;4.718;2023-05-06T04:39:28;2.67;;;1.90;;
13927;SDS011;7036;50.834;4.718;2023-05-06T04:41:55;1.60;;;1.35;;
13927;SDS011;7036;50.834;4.718;2023-05-06T04:44:22;1.73;;;1.30;;
13927;SDS011;7036;50.834;4.718;2023-05-06T04:46:49;2.83;;;2.03;;
13927;SDS011;7036;50.834;4.718;2023-05-06T04:49:16;1.45;;;1.33;;
13927;SDS011;7036;50.834;4.718;2023-05-06T04:51:44;2.10;;;1.27;;
13927;SDS011;7036;50.834;4.718;2023-05-06T04:54:11;1.45;;;1.35;;
13927;SDS011;7036;50.834;4.718;2023-05-06T04:56:39;2.30;;;1.67;;
13927;SDS011;7036;50.834;4.718;2023-05-06T04:59:07;1.67;;;1.58;;
13927;SDS011;7036;50.834;4.718;2023-05-06T05:01:35;2.47;;;1.83;;
13927;SDS011;7036;50.834;4.718;2023-05-06T05:04:03;2.22;;;1.90;;
13927;SDS011;7036;50.834;4.718;2023-05-06T05:06:31;2.10;;;1.70;;
13927;SDS011;7036;50.834;4.718;2023-05-06T05:08:58;2.95;;;1.60;;
13927;SDS011;7036;50.834;4.718;2023-05-06T05:11:26;2.38;;;1.60;;
13927;SDS011;7036;50.834;4.718;2023-05-06T05:13:53;1.95;;;1.65;;
13927;SDS011;7036;50.834;4.718;2023-05-06T05:16:20;1.63;;;1.45;;
13927;SDS011;7036;50.834;4.718;2023-05-06T05:18:48;1.38;;;1.27;;
13927;SDS011;7036;50.834;4.718;2023-05-06T05:21:15;1.90;;;1.67;;
13927;SDS011;7036;50.834;4.718;2023-05-06T05:23:43;2.92;;;1.73;;
13927;SDS011;7036;50.834;4.718;2023-05-06T05:26:11;2.80;;;1.80;;
13927;SDS011;7036;50.834;4.718;2023-05-06T05:28:39;2.35;;;1.58;;
13927;SDS011;7036;50.834;4.718;2023-05-06T05:31:07;4.05;;;1.67;;
13927;SDS011;7036;50.834;4.718;2023-05-06T05:33:35;2.22;;;1.60;;
13927;SDS011;7036;50.834;4.718;2023-05-06T05:36:02;4.05;;;1.73;;
13927;SDS011;7036;50.834;4.718;2023-05-06T05:38:30;2.00;;;1.60;;
13927;SDS011;7036;50.834;4.718;2023-05-06T05:40:58;1.58;;;1.33;;
13927;SDS011;7036;50.834;4.718;2023-05-06T05:43:25;1.90;;;1.50;;
13927;SDS011;7036;50.834;4.718;2023-05-06T05:45:53;1.73;;;1.40;;
13927;SDS011;7036;50.834;4.718;2023-05-06T05:48:21;1.77;;;1.40;;
13927;SDS011;7036;50.834;4.718;2023-05-06T05:50:49;2.60;;;1.60;;
13927;SDS011;7036;50.834;4.718;2023-05-06T05:53:16;2.08;;;1.40;;
13927;SDS011;7036;50.834;4.718;2023-05-06T05:55:44;2.58;;;1.67;;
13927;SDS011;7036;50.834;4.718;2023-05-06T05:58:12;2.67;;;1.63;;
13927;SDS011;7036;50.834;4.718;2023-05-06T06:00:39;2.30;;;1.88;;
13927;SDS011;7036;50.834;4.718;2023-05-06T06:03:07;4.07;;;2.00;;
13927;SDS011;7036;50.834;4.718;2023-05-06T06:05:35;1.70;;;1.50;;
13927;SDS011;7036;50.834;4.718;2023-05-06T06:08:03;1.42;;;1.30;;
13927;SDS011;7036;50.834;4.718;2023-05-06T06:10:32;2.90;;;1.42;;
13927;SDS011;7036;50.834;4.718;2023-05-06T06:12:59;2.23;;;1.60;;
13927;SDS011;7036;50.834;4.718;2023-05-06T06:15:27;1.92;;;1.63;;
13927;SDS011;7036;50.834;4.718;2023-05-06T06:17:55;2.05;;;1.67;;
13927;SDS011;7036;50.834;4.718;2023-05-06T06:20:23;4.53;;;1.63;;
13927;SDS011;7036;50.834;4.718;2023-05-06T06:22:51;2.95;;;1.65;;
13927;SDS011;7036;50.834;4.718;2023-05-06T06:25:19;2.42;;;1.48;;
13927;SDS011;7036;50.834;4.718;2023-05-06T06:27:48;2.75;;;1.75;;
13927;SDS011;7036;50.834;4.718;2023-05-06T06:30:14;1.40;;;1.30;;
13927;SDS011;7036;50.834;4.718;2023-05-06T06:32:46;2.00;;;1.70;;
13927;SDS011;7036;50.834;4.718;2023-05-06T06:35:14;3.57;;;1.60;;
13927;SDS011;7036;50.834;4.718;2023-05-06T06:37:42;3.00;;;1.40;;
13927;SDS011;7036;50.834;4.718;2023-05-06T06:40:09;3.23;;;1.73;;
13927;SDS011;7036;50.834;4.718;2023-05-06T06:42:36;3.47;;;1.98;;
13927;SDS011;7036;50.834;4.718;2023-05-06T06:45:04;4.38;;;2.00;;
13927;SDS011;7036;50.834;4.718;2023-05-06T06:47:31;5.53;;;1.60;;
13927;SDS011;7036;50.834;4.718;2023-05-06T06:49:58;2.10;;;1.67;;
13927;SDS011;7036;50.834;4.718;2023-05-06T06:52:26;4.03;;;1.85;;
13927;SDS011;7036;50.834;4.718;2023-05-06T06:54:54;4.32;;;1.85;;
13927;SDS011;7036;50.834;4.718;2023-05-06T06:57:22;2.50;;;1.58;;
13927;SDS011;7036;50.834;4.718;2023-05-06T06:59:50;2.03;;;1.50;;
13927;SDS011;7036;50.834;4.718;2023-05-06T07:02:17;3.53;;;1.55;;
13927;SDS011;7036;50.834;4.718;2023-05-06T07:04:45;5.45;;;2.20;;
13927;SDS011;7036;50.834;4.718;2023-05-06T07:07:13;2.03;;;1.50;;
13927;SDS011;7036;50.834;4.718;2023-05-06T07:09:41;4.18;;;1.42;;
13927;SDS011;7036;50.834;4.718;2023-05-06T07:12:09;5.03;;;1.80;;
13927;SDS011;7036;50.834;4.718;2023-05-06T07:14:37;3.00;;;1.60;;
13927;SDS011;7036;50.834;4.718;2023-05-06T07:17:05;2.97;;;1.75;;
13927;SDS011;7036;50.834;4.718;2023-05-06T07:19:33;2.28;;;1.42;;
13927;SDS011;7036;50.834;4.718;2023-05-06T07:22:03;2.57;;;1.47;;
13927;SDS011;7036;50.834;4.718;2023-05-06T07:24:30;5.90;;;2.63;;
13927;SDS011;7036;50.834;4.718;2023-05-06T07:26:57;3.97;;;2.00;;
13927;SDS011;7036;50.834;4.718;2023-05-06T07:29:24;6.35;;;2.95;;
13927;SDS011;7036;50.834;4.718;2023-05-06T07:31:52;8.23;;;3.05;;
13927;SDS011;7036;50.834;4.718;2023-05-06T07:34:19;8.07;;;2.88;;
13927;SDS011;7036;50.834;4.718;2023-05-06T07:36:46;6.38;;;2.50;;
13927;SDS011;7036;50.834;4.718;2023-05-06T07:39:14;3.72;;;2.65;;
13927;SDS011;7036;50.834;4.718;2023-05-06T07:41:42;6.03;;;2.83;;
13927;SDS011;7036;50.834;4.718;2023-05-06T07:44:08;4.87;;;2.47;;
13927;SDS011;7036;50.834;4.718;2023-05-06T07:46:36;6.15;;;2.75;;
13927;SDS011;7036;50.834;4.718;2023-05-06T07:49:04;5.47;;;3.17;;
13927;SDS011;7036;50.834;4.718;2023-05-06T07:51:32;6.78;;;3.35;;
13927;SDS011;7036;50.834;4.718;2023-05-06T07:54:01;5.93;;;2.58;;
13927;SDS011;7036;50.834;4.718;2023-05-06T07:56:27;8.13;;;2.90;;
13927;SDS011;7036;50.834;4.718;2023-05-06T07:58:56;3.67;;;2.40;;
13927;SDS011;7036;50.834;4.718;2023-05-06T08:01:22;3.77;;;2.53;;
13927;SDS011;7036;50.834;4.718;2023-05-06T08:03:50;5.72;;;3.00;;
13927;SDS011;7036;50.834;4.718;2023-05-06T08:06:18;6.32;;;3.08;;
13927;SDS011;7036;50.834;4.718;2023-05-06T08:08:46;6.85;;;2.85;;
13927;SDS011;7036;50.834;4.718;2023-05-06T08:11:14;3.58;;;2.53;;
13927;SDS011;7036;50.834;4.718;2023-05-06T08:13:41;7.53;;;3.00;;
13927;SDS011;7036;50.834;4.718;2023-05-06T08:16:08;5.13;;;2.65;;
13927;SDS011;7036;50.834;4.718;2023-05-06T08:18:36;5.50;;;2.75;;
13927;SDS011;7036;50.834;4.718;2023-05-06T08:21:04;4.88;;;2.67;;
13927;SDS011;7036;50.834;4.718;2023-05-06T08:23:32;4.07;;;2.38;;
13927;SDS011;7036;50.834;4.718;2023-05-06T08:26:00;3.92;;;2.60;;
13927;SDS011;7036;50.834;4.718;2023-05-06T08:28:28;4.80;;;2.40;;
13927;SDS011;7036;50.834;4.718;2023-05-06T08:30:55;4.30;;;2.80;;
13927;SDS011;7036;50.834;4.718;2023-05-06T08:33:22;8.57;;;2.95;;
13927;SDS011;7036;50.834;4.718;2023-05-06T08:35:49;5.20;;;2.85;;
13927;SDS011;7036;50.834;4.718;2023-05-06T08:38:19;4.80;;;2.75;;
13927;SDS011;7036;50.834;4.718;2023-05-06T08:40:46;8.27;;;2.40;;
13927;SDS011;7036;50.834;4.718;2023-05-06T08:43:13;5.78;;;3.03;;
13927;SDS011;7036;50.834;4.718;2023-05-06T08:45:40;8.65;;;2.92;;
13927;SDS011;7036;50.834;4.718;2023-05-06T08:48:08;8.00;;;3.13;;
13927;SDS011;7036;50.834;4.718;2023-05-06T08:50:36;6.22;;;2.90;;
13927;SDS011;7036;50.834;4.718;2023-05-06T08:53:02;6.78;;;2.70;;
13927;SDS011;7036;50.834;4.718;2023-05-06T08:55:31;5.72;;;2.42;;
13927;SDS011;7036;50.834;4.718;2023-05-06T08:57:58;4.97;;;2.43;;
13927;SDS011;7036;50.834;4.718;2023-05-06T09:00:25;7.35;;;2.90;;
13927;SDS011;7036;50.834;4.718;2023-05-06T09:02:52;5.43;;;2.42;;
13927;SDS011;7036;50.834;4.718;2023-05-06T09:05:19;2.80;;;1.98;;
13927;SDS011;7036;50.834;4.718;2023-05-06T09:07:47;4.32;;;2.42;;
13927;SDS011;7036;50.834;4.718;2023-05-06T09:10:15;5.75;;;2.90;;
13927;SDS011;7036;50.834;4.718;2023-05-06T09:12:43;4.38;;;2.80;;
13927;SDS011;7036;50.834;4.718;2023-05-06T09:15:10;4.32;;;2.30;;
13927;SDS011;7036;50.834;4.718;2023-05-06T09:17:38;6.30;;;2.40;;
13927;SDS011;7036;50.834;4.718;2023-05-06T09:20:05;4.75;;;2.50;;
13927;SDS011;7036;50.834;4.718;2023-05-06T09:22:33;9.13;;;2.60;;
13927;SDS011;7036;50.834;4.718;2023-05-06T09:25:01;9.50;;;2.67;;
13927;SDS011;7036;50.834;4.718;2023-05-06T09:27:30;5.60;;;2.88;;
13927;SDS011;7036;50.834;4.718;2023-05-06T09:32:30;2.90;;;2.03;;
13927;SDS011;7036;50.834;4.718;2023-05-06T09:34:56;4.60;;;2.40;;
13927;SDS011;7036;50.834;4.718;2023-05-06T09:37:24;4.75;;;1.88;;
13927;SDS011;7036;50.834;4.718;2023-05-06T09:39:55;6.75;;;2.50;;
13927;SDS011;7036;50.834;4.718;2023-05-06T09:42:21;6.47;;;2.50;;
13927;SDS011;7036;50.834;4.718;2023-05-06T09:44:50;4.03;;;2.33;;
13927;SDS011;7036;50.834;4.718;2023-05-06T09:47:16;6.45;;;2.33;;
13927;SDS011;7036;50.834;4.718;2023-05-06T09:49:44;5.55;;;2.63;;
13927;SDS011;7036;50.834;4.718;2023-05-06T09:52:11;5.93;;;2.33;;
13927;SDS011;7036;50.834;4.718;2023-05-06T09:54:39;7.78;;;2.58;;
13927;SDS011;7036;50.834;4.718;2023-05-06T09:57:06;4.88;;;2.17;;
13927;SDS011;7036;50.834;4.718;2023-05-06T09:59:35;4.50;;;2.20;;
13927;SDS011;7036;50.834;4.718;2023-05-06T10:02:01;6.07;;;2.63;;
13927;SDS011;7036;50.834;4.718;2023-05-06T10:04:29;5.25;;;2.75;;
13927;SDS011;7036;50.834;4.718;2023-05-06T10:06:56;2.40;;;1.80;;
13927;SDS011;7036;50.834;4.718;2023-05-06T10:09:23;4.63;;;2.10;;
13927;SDS011;7036;50.834;4.718;2023-05-06T10:11:52;5.70;;;2.22;;
13927;SDS011;7036;50.834;4.718;2023-05-06T10:14:19;3.13;;;1.83;;
13927;SDS011;7036;50.834;4.718;2023-05-06T10:16:47;10.18;;;2.30;;
13927;SDS011;7036;50.834;4.718;2023-05-06T10:19:16;3.30;;;2.17;;
13927;SDS011;7036;50.834;4.718;2023-05-06T10:21:42;3.92;;;1.95;;
13927;SDS011;7036;50.834;4.718;2023-05-06T10:24:10;5.38;;;1.92;;
13927;SDS011;7036;50.834;4.718;2023-05-06T10:26:38;6.38;;;2.38;;
13927;SDS011;7036;50.834;4.718;2023-05-06T10:29:08;6.32;;;2.42;;
13927;SDS011;7036;50.834;4.718;2023-05-06T10:31:34;5.18;;;2.20;;
13927;SDS011;7036;50.834;4.718;2023-05-06T10:34:01;3.70;;;1.90;;
13927;SDS011;7036;50.834;4.718;2023-05-06T10:36:29;4.03;;;2.03;;
13927;SDS011;7036;50.834;4.718;2023-05-06T10:38:57;5.88;;;1.98;;
13927;SDS011;7036;50.834;4.718;2023-05-06T10:41:24;7.35;;;2.30;;
13927;SDS011;7036;50.834;4.718;2023-05-06T10:43:52;9.38;;;2.35;;
13927;SDS011;7036;50.834;4.718;2023-05-06T10:46:22;9.27;;;2.50;;
13927;SDS011;7036;50.834;4.718;2023-05-06T10:51:32;6.60;;;2.07;;
13927;SDS011;7036;50.834;4.718;2023-05-06T10:54:03;5.82;;;2.03;;
13927;SDS011;7036;50.834;4.718;2023-05-06T10:56:30;8.57;;;2.53;;
13927;SDS011;7036;50.834;4.718;2023-05-06T10:58:59;6.18;;;2.40;;
13927;SDS011;7036;50.834;4.718;2023-05-06T11:01:26;3.87;;;2.10;;
13927;SDS011;7036;50.834;4.718;2023-05-06T11:03:54;4.10;;;1.95;;
13927;SDS011;7036;50.834;4.718;2023-05-06T11:06:33;4.78;;;1.70;;
13927;SDS011;7036;50.834;4.718;2023-05-06T11:08:59;3.27;;;1.73;;
13927;SDS011;7036;50.834;4.718;2023-05-06T11:14:31;5.10;;;1.80;;
13927;SDS011;7036;50.834;4.718;2023-05-06T11:17:02;4.63;;;1.67;;
13927;SDS011;7036;50.834;4.718;2023-05-06T11:19:29;3.58;;;1.75;;
13927;SDS011;7036;50.834;4.718;2023-05-06T11:21:55;4.07;;;1.87;;
13927;SDS011;7036;50.834;4.718;2023-05-06T11:24:24;5.47;;;1.85;;
13927;SDS011;7036;50.834;4.718;2023-05-06T11:26:56;4.63;;;1.77;;
13927;SDS011;7036;50.834;4.718;2023-05-06T11:29:22;6.45;;;1.90;;
13927;SDS011;7036;50.834;4.718;2023-05-06T11:31:49;4.22;;;1.80;;
13927;SDS011;7036;50.834;4.718;2023-05-06T11:34:19;7.13;;;1.98;;
13927;SDS011;7036;50.834;4.718;2023-05-06T11:36:49;7.10;;;2.38;;
13927;SDS011;7036;50.834;4.718;2023-05-06T11:39:15;5.90;;;2.17;;
13927;SDS011;7036;50.834;4.718;2023-05-06T11:41:42;7.93;;;2.40;;
13927;SDS011;7036;50.834;4.718;2023-05-06T11:44:09;5.80;;;2.07;;
13927;SDS011;7036;50.834;4.718;2023-05-06T11:46:36;3.67;;;2.03;;
13927;SDS011;7036;50.834;4.718;2023-05-06T11:49:04;7.65;;;1.98;;
13927;SDS011;7036;50.834;4.718;2023-05-06T11:51:31;4.03;;;2.03;;
13927;SDS011;7036;50.834;4.718;2023-05-06T11:54:03;7.63;;;1.90;;
13927;SDS011;7036;50.834;4.718;2023-05-06T11:56:28;2.43;;;1.77;;
13927;SDS011;7036;50.834;4.718;2023-05-06T11:58:56;5.40;;;2.13;;
13927;SDS011;7036;50.834;4.718;2023-05-06T12:01:23;2.85;;;1.45;;
13927;SDS011;7036;50.834;4.718;2023-05-06T12:03:53;3.05;;;1.75;;
13927;SDS011;7036;50.834;4.718;2023-05-06T12:06:18;4.05;;;1.52;;
13927;SDS011;7036;50.834;4.718;2023-05-06T12:08:46;4.53;;;1.75;;
13927;SDS011;7036;50.834;4.718;2023-05-06T12:11:14;2.97;;;1.65;;
13927;SDS011;7036;50.834;4.718;2023-05-06T12:13:42;4.68;;;1.77;;
13927;SDS011;7036;50.834;4.718;2023-05-06T12:16:10;3.58;;;1.48;;
13927;SDS011;7036;50.834;4.718;2023-05-06T12:18:37;1.90;;;1.37;;
13927;SDS011;7036;50.834;4.718;2023-05-06T12:21:04;4.55;;;1.98;;
13927;SDS011;7036;50.834;4.718;2023-05-06T12:23:31;3.35;;;1.88;;
13927;SDS011;7036;50.834;4.718;2023-05-06T12:26:00;6.55;;;1.80;;
13927;SDS011;7036;50.834;4.718;2023-05-06T12:28:26;5.60;;;2.30;;
13927;SDS011;7036;50.834;4.718;2023-05-06T12:30:53;4.28;;;1.50;;
13927;SDS011;7036;50.834;4.718;2023-05-06T12:33:21;6.25;;;1.88;;
13927;SDS011;7036;50.834;4.718;2023-05-06T12:35:49;5.47;;;1.80;;
13927;SDS011;7036;50.834;4.718;2023-05-06T12:38:18;7.30;;;1.77;;
13927;SDS011;7036;50.834;4.718;2023-05-06T12:40:55;6.18;;;1.80;;
13927;SDS011;7036;50.834;4.718;2023-05-06T12:43:26;3.30;;;1.40;;
13927;SDS011;7036;50.834;4.718;2023-05-06T12:46:00;8.68;;;1.95;;
13927;SDS011;7036;50.834;4.718;2023-05-06T12:48:15;7.75;;;2.15;;
13927;SDS011;7036;50.834;4.718;2023-05-06T12:50:43;4.65;;;1.80;;
13927;SDS011;7036;50.834;4.718;2023-05-06T12:53:10;3.13;;;1.25;;
13927;SDS011;7036;50.834;4.718;2023-05-06T12:55:37;3.17;;;1.55;;
13927;SDS011;7036;50.834;4.718;2023-05-06T12:58:14;8.10;;;1.95;;
13927;SDS011;7036;50.834;4.718;2023-05-06T13:00:32;4.57;;;1.65;;
13927;SDS011;7036;50.834;4.718;2023-05-06T13:03:00;4.28;;;1.75;;
13927;SDS011;7036;50.834;4.718;2023-05-06T13:05:27;3.17;;;1.48;;
13927;SDS011;7036;50.834;4.718;2023-05-06T13:07:55;4.22;;;1.40;;
13927;SDS011;7036;50.834;4.718;2023-05-06T13:10:23;3.20;;;1.92;;
13927;SDS011;7036;50.834;4.718;2023-05-06T13:12:50;3.15;;;1.73;;
13927;SDS011;7036;50.834;4.718;2023-05-06T13:15:17;5.47;;;1.70;;
13927;SDS011;7036;50.834;4.718;2023-05-06T13:17:45;14.20;;;2.10;;
13927;SDS011;7036;50.834;4.718;2023-05-06T13:20:13;5.82;;;2.03;;
13927;SDS011;7036;50.834;4.718;2023-05-06T13:22:41;5.15;;;1.75;;
13927;SDS011;7036;50.834;4.718;2023-05-06T13:25:09;7.85;;;2.10;;
13927;SDS011;7036;50.834;4.718;2023-05-06T13:27:39;6.90;;;1.80;;
13927;SDS011;7036;50.834;4.718;2023-05-06T13:30:06;4.93;;;1.53;;
13927;SDS011;7036;50.834;4.718;2023-05-06T13:32:33;6.55;;;1.85;;
13927;SDS011;7036;50.834;4.718;2023-05-06T13:35:01;6.32;;;2.00;;
13927;SDS011;7036;50.834;4.718;2023-05-06T13:37:29;12.13;;;2.00;;
13927;SDS011;7036;50.834;4.718;2023-05-06T13:39:57;6.68;;;1.80;;
13927;SDS011;7036;50.834;4.718;2023-05-06T13:42:26;7.18;;;1.77;;
13927;SDS011;7036;50.834;4.718;2023-05-06T13:44:54;3.95;;;1.55;;
13927;SDS011;7036;50.834;4.718;2023-05-06T13:47:22;8.20;;;1.57;;
13927;SDS011;7036;50.834;4.718;2023-05-06T13:49:49;8.83;;;1.97;;
13927;SDS011;7036;50.834;4.718;2023-05-06T13:52:16;6.85;;;1.98;;
13927;SDS011;7036;50.834;4.718;2023-05-06T13:54:43;16.67;;;2.90;;
13927;SDS011;7036;50.834;4.718;2023-05-06T13:57:11;16.88;;;2.00;;
13927;SDS011;7036;50.834;4.718;2023-05-06T13:59:39;7.18;;;1.73;;
13927;SDS011;7036;50.834;4.718;2023-05-06T14:02:06;5.63;;;1.83;;
13927;SDS011;7036;50.834;4.718;2023-05-06T14:04:33;5.22;;;1.83;;
13927;SDS011;7036;50.834;4.718;2023-05-06T14:07:00;3.92;;;1.63;;
13927;SDS011;7036;50.834;4.718;2023-05-06T14:09:27;4.32;;;1.55;;
13927;SDS011;7036;50.834;4.718;2023-05-06T14:11:55;8.65;;;1.58;;
13927;SDS011;7036;50.834;4.718;2023-05-06T14:14:23;5.50;;;1.50;;
13927;SDS011;7036;50.834;4.718;2023-05-06T14:16:51;6.85;;;2.13;;
13927;SDS011;7036;50.834;4.718;2023-05-06T14:19:19;3.85;;;1.25;;
13927;SDS011;7036;50.834;4.718;2023-05-06T14:21:47;4.90;;;1.70;;
13927;SDS011;7036;50.834;4.718;2023-05-06T14:24:14;10.00;;;2.13;;
13927;SDS011;7036;50.834;4.718;2023-05-06T14:26:42;7.40;;;1.50;;
13927;SDS011;7036;50.834;4.718;2023-05-06T14:29:09;3.40;;;1.48;;
13927;SDS011;7036;50.834;4.718;2023-05-06T14:31:37;5.50;;;1.65;;
13927;SDS011;7036;50.834;4.718;2023-05-06T14:34:04;4.57;;;1.70;;
13927;SDS011;7036;50.834;4.718;2023-05-06T14:36:32;7.03;;;1.33;;
13927;SDS011;7036;50.834;4.718;2023-05-06T14:39:00;10.27;;;2.35;;
13927;SDS011;7036;50.834;4.718;2023-05-06T14:41:27;4.07;;;1.30;;
13927;SDS011;7036;50.834;4.718;2023-05-06T14:43:54;4.32;;;1.88;;
13927;SDS011;7036;50.834;4.718;2023-05-06T14:46:21;3.00;;;1.52;;
13927;SDS011;7036;50.834;4.718;2023-05-06T14:48:49;2.78;;;1.45;;
13927;SDS011;7036;50.834;4.718;2023-05-06T14:51:17;8.85;;;1.75;;
13927;SDS011;7036;50.834;4.718;2023-05-06T14:53:44;9.40;;;1.80;;
13927;SDS011;7036;50.834;4.718;2023-05-06T14:56:11;6.18;;;1.60;;
13927;SDS011;7036;50.834;4.718;2023-05-06T14:58:38;6.18;;;1.50;;
13927;SDS011;7036;50.834;4.718;2023-05-06T15:01:06;7.70;;;1.80;;
13927;SDS011;7036;50.834;4.718;2023-05-06T15:03:33;8.57;;;1.83;;
13927;SDS011;7036;50.834;4.718;2023-05-06T15:06:00;6.78;;;1.95;;
13927;SDS011;7036;50.834;4.718;2023-05-06T15:08:28;4.97;;;1.38;;
13927;SDS011;7036;50.834;4.718;2023-05-06T15:10:55;2.35;;;1.40;;
13927;SDS011;7036;50.834;4.718;2023-05-06T15:13:23;6.05;;;1.48;;